sensor_id;sensor_type;location;lat;lon;timestamp;P1;durP1;ratioP1;P2;durP2;ratioP2
16977;SDS011;8605;52.548;4.918;2023-12-29T00:02:09;63.60;;;8.60;;
16977;SDS011;8605;52.548;4.918;2023-12-29T00:04:37;78.43;;;9.90;;
16977;SDS011;8605;52.548;4.918;2023-12-29T00:07:05;68.78;;;8.65;;
16977;SDS011;8605;52.548;4.918;2023-12-29T00:09:33;75.22;;;9.40;;
16977;SDS011;8605;52.548;4.918;2023-12-29T00:12:07;75.90;;;8.88;;
16977;SDS011;8605;52.548;4.918;2023-12-29T00:14:39;68.22;;;8.77;;
16977;SDS011;8605;52.548;4.918;2023-12-29T00:17:07;65.53;;;8.98;;
16977;SDS011;8605;52.548;4.918;2023-12-29T00:19:38;61.10;;;9.10;;
16977;SDS011;8605;52.548;4.918;2023-12-29T00:22:06;70.05;;;8.55;;
16977;SDS011;8605;52.548;4.918;2023-12-29T00:24:33;64.75;;;9.00;;
16977;SDS011;8605;52.548;4.918;2023-12-29T00:27:02;62.35;;;8.48;;
16977;SDS011;8605;52.548;4.918;2023-12-29T00:29:30;68.63;;;9.65;;
16977;SDS011;8605;52.548;4.918;2023-12-29T00:32:02;59.92;;;6.93;;
16977;SDS011;8605;52.548;4.918;2023-12-29T00:34:31;64.82;;;8.23;;
16977;SDS011;8605;52.548;4.918;2023-12-29T00:37:01;57.33;;;7.50;;
16977;SDS011;8605;52.548;4.918;2023-12-29T00:39:30;57.13;;;7.65;;
16977;SDS011;8605;52.548;4.918;2023-12-29T00:42:05;65.65;;;8.40;;
16977;SDS011;8605;52.548;4.918;2023-12-29T00:44:36;63.75;;;8.00;;
16977;SDS011;8605;52.548;4.918;2023-12-29T00:47:05;62.90;;;7.57;;
16977;SDS011;8605;52.548;4.918;2023-12-29T00:49:33;63.47;;;7.85;;
16977;SDS011;8605;52.548;4.918;2023-12-29T00:52:01;53.50;;;6.88;;
16977;SDS011;8605;52.548;4.918;2023-12-29T00:54:29;64.00;;;8.25;;
16977;SDS011;8605;52.548;4.918;2023-12-29T00:56:57;70.90;;;8.35;;
16977;SDS011;8605;52.548;4.918;2023-12-29T00:59:25;66.22;;;7.95;;
16977;SDS011;8605;52.548;4.918;2023-12-29T01:01:53;67.18;;;8.50;;
16977;SDS011;8605;52.548;4.918;2023-12-29T01:04:22;60.85;;;7.13;;
16977;SDS011;8605;52.548;4.918;2023-12-29T01:06:50;61.90;;;7.88;;
16977;SDS011;8605;52.548;4.918;2023-12-29T01:09:20;62.58;;;7.72;;
16977;SDS011;8605;52.548;4.918;2023-12-29T01:11:48;60.50;;;7.53;;
16977;SDS011;8605;52.548;4.918;2023-12-29T01:14:16;60.85;;;8.13;;
16977;SDS011;8605;52.548;4.918;2023-12-29T01:16:43;48.97;;;7.10;;
16977;SDS011;8605;52.548;4.918;2023-12-29T01:19:11;47.25;;;6.82;;
16977;SDS011;8605;52.548;4.918;2023-12-29T01:21:40;52.38;;;6.35;;
16977;SDS011;8605;52.548;4.918;2023-12-29T01:24:08;51.30;;;7.93;;
16977;SDS011;8605;52.548;4.918;2023-12-29T01:26:38;60.58;;;7.05;;
16977;SDS011;8605;52.548;4.918;2023-12-29T01:29:06;62.85;;;7.75;;
16977;SDS011;8605;52.548;4.918;2023-12-29T01:31:34;48.83;;;6.10;;
16977;SDS011;8605;52.548;4.918;2023-12-29T01:34:01;49.50;;;6.45;;
16977;SDS011;8605;52.548;4.918;2023-12-29T01:36:29;45.65;;;6.28;;
16977;SDS011;8605;52.548;4.918;2023-12-29T01:38:58;46.97;;;6.15;;
16977;SDS011;8605;52.548;4.918;2023-12-29T01:41:25;50.10;;;6.45;;
16977;SDS011;8605;52.548;4.918;2023-12-29T01:44:12;44.78;;;5.78;;
16977;SDS011;8605;52.548;4.918;2023-12-29T01:46:46;48.83;;;6.30;;
16977;SDS011;8605;52.548;4.918;2023-12-29T01:49:16;43.30;;;6.13;;
16977;SDS011;8605;52.548;4.918;2023-12-29T01:51:45;43.67;;;5.75;;
16977;SDS011;8605;52.548;4.918;2023-12-29T01:54:17;49.60;;;6.15;;
16977;SDS011;8605;52.548;4.918;2023-12-29T01:56:46;49.00;;;6.60;;
16977;SDS011;8605;52.548;4.918;2023-12-29T01:59:15;43.15;;;6.25;;
16977;SDS011;8605;52.548;4.918;2023-12-29T02:01:51;47.05;;;6.90;;
16977;SDS011;8605;52.548;4.918;2023-12-29T02:04:22;54.97;;;6.63;;
16977;SDS011;8605;52.548;4.918;2023-12-29T02:06:52;55.55;;;7.47;;
16977;SDS011;8605;52.548;4.918;2023-12-29T02:09:22;49.72;;;5.57;;
16977;SDS011;8605;52.548;4.918;2023-12-29T02:11:50;48.55;;;6.70;;
16977;SDS011;8605;52.548;4.918;2023-12-29T02:14:18;54.55;;;6.45;;
16977;SDS011;8605;52.548;4.918;2023-12-29T02:16:50;46.08;;;7.03;;
16977;SDS011;8605;52.548;4.918;2023-12-29T02:19:25;48.30;;;6.68;;
16977;SDS011;8605;52.548;4.918;2023-12-29T02:22:05;48.58;;;6.47;;
16977;SDS011;8605;52.548;4.918;2023-12-29T02:24:35;52.55;;;6.38;;
16977;SDS011;8605;52.548;4.918;2023-12-29T02:27:09;41.65;;;6.72;;
16977;SDS011;8605;52.548;4.918;2023-12-29T02:29:43;48.08;;;7.07;;
16977;SDS011;8605;52.548;4.918;2023-12-29T02:32:16;40.70;;;6.10;;
16977;SDS011;8605;52.548;4.918;2023-12-29T02:34:47;49.30;;;6.30;;
16977;SDS011;8605;52.548;4.918;2023-12-29T02:37:18;63.45;;;7.95;;
16977;SDS011;8605;52.548;4.918;2023-12-29T02:39:50;46.78;;;7.13;;
16977;SDS011;8605;52.548;4.918;2023-12-29T02:42:20;55.25;;;7.57;;
16977;SDS011;8605;52.548;4.918;2023-12-29T02:44:48;53.38;;;6.55;;
16977;SDS011;8605;52.548;4.918;2023-12-29T02:47:15;60.15;;;7.15;;
16977;SDS011;8605;52.548;4.918;2023-12-29T02:49:45;72.90;;;8.48;;
16977;SDS011;8605;52.548;4.918;2023-12-29T02:52:14;58.50;;;7.75;;
16977;SDS011;8605;52.548;4.918;2023-12-29T02:54:41;58.75;;;7.65;;
16977;SDS011;8605;52.548;4.918;2023-12-29T02:57:09;61.20;;;7.45;;
16977;SDS011;8605;52.548;4.918;2023-12-29T02:59:38;63.05;;;8.10;;
16977;SDS011;8605;52.548;4.918;2023-12-29T03:02:06;68.25;;;8.57;;
16977;SDS011;8605;52.548;4.918;2023-12-29T03:04:34;65.30;;;8.02;;
16977;SDS011;8605;52.548;4.918;2023-12-29T03:07:01;71.45;;;8.73;;
16977;SDS011;8605;52.548;4.918;2023-12-29T03:09:29;54.15;;;6.82;;
16977;SDS011;8605;52.548;4.918;2023-12-29T03:11:57;67.43;;;7.57;;
16977;SDS011;8605;52.548;4.918;2023-12-29T03:14:25;59.05;;;7.82;;
16977;SDS011;8605;52.548;4.918;2023-12-29T03:16:54;62.33;;;8.38;;
16977;SDS011;8605;52.548;4.918;2023-12-29T03:19:22;68.78;;;8.73;;
16977;SDS011;8605;52.548;4.918;2023-12-29T03:21:50;59.22;;;7.63;;
16977;SDS011;8605;52.548;4.918;2023-12-29T03:24:20;55.70;;;8.00;;
16977;SDS011;8605;52.548;4.918;2023-12-29T03:26:48;55.15;;;7.50;;
16977;SDS011;8605;52.548;4.918;2023-12-29T03:29:16;55.92;;;7.50;;
16977;SDS011;8605;52.548;4.918;2023-12-29T03:31:44;47.72;;;6.40;;
16977;SDS011;8605;52.548;4.918;2023-12-29T03:34:13;47.78;;;5.93;;
16977;SDS011;8605;52.548;4.918;2023-12-29T03:36:41;50.45;;;6.97;;
16977;SDS011;8605;52.548;4.918;2023-12-29T03:39:09;55.35;;;7.13;;
16977;SDS011;8605;52.548;4.918;2023-12-29T03:41:37;41.30;;;7.38;;
16977;SDS011;8605;52.548;4.918;2023-12-29T03:44:04;51.58;;;6.72;;
16977;SDS011;8605;52.548;4.918;2023-12-29T03:46:32;43.78;;;5.95;;
16977;SDS011;8605;52.548;4.918;2023-12-29T03:49:01;44.08;;;6.10;;
16977;SDS011;8605;52.548;4.918;2023-12-29T03:51:31;51.60;;;6.93;;
16977;SDS011;8605;52.548;4.918;2023-12-29T03:53:58;42.40;;;5.95;;
16977;SDS011;8605;52.548;4.918;2023-12-29T03:56:26;51.25;;;6.00;;
16977;SDS011;8605;52.548;4.918;2023-12-29T03:58:54;46.03;;;6.10;;
16977;SDS011;8605;52.548;4.918;2023-12-29T04:01:22;44.78;;;6.03;;
16977;SDS011;8605;52.548;4.918;2023-12-29T04:03:53;46.42;;;6.15;;
16977;SDS011;8605;52.548;4.918;2023-12-29T04:06:20;42.00;;;6.50;;
16977;SDS011;8605;52.548;4.918;2023-12-29T04:08:50;48.70;;;5.88;;
16977;SDS011;8605;52.548;4.918;2023-12-29T04:11:16;45.00;;;6.28;;
16977;SDS011;8605;52.548;4.918;2023-12-29T04:13:46;47.17;;;6.47;;
16977;SDS011;8605;52.548;4.918;2023-12-29T04:16:14;53.45;;;6.32;;
16977;SDS011;8605;52.548;4.918;2023-12-29T04:18:42;46.13;;;6.10;;
16977;SDS011;8605;52.548;4.918;2023-12-29T04:21:13;48.80;;;5.97;;
16977;SDS011;8605;52.548;4.918;2023-12-29T04:23:41;42.80;;;6.50;;
16977;SDS011;8605;52.548;4.918;2023-12-29T04:26:10;40.72;;;5.13;;
16977;SDS011;8605;52.548;4.918;2023-12-29T04:28:38;39.30;;;5.60;;
16977;SDS011;8605;52.548;4.918;2023-12-29T04:31:05;45.45;;;5.32;;
16977;SDS011;8605;52.548;4.918;2023-12-29T04:33:33;47.33;;;5.60;;
16977;SDS011;8605;52.548;4.918;2023-12-29T04:36:04;48.30;;;5.43;;
16977;SDS011;8605;52.548;4.918;2023-12-29T04:38:32;38.25;;;5.18;;
16977;SDS011;8605;52.548;4.918;2023-12-29T04:41:03;45.25;;;6.05;;
16977;SDS011;8605;52.548;4.918;2023-12-29T04:43:32;46.97;;;6.53;;
16977;SDS011;8605;52.548;4.918;2023-12-29T04:46:03;42.43;;;5.63;;
16977;SDS011;8605;52.548;4.918;2023-12-29T04:48:31;49.65;;;6.85;;
16977;SDS011;8605;52.548;4.918;2023-12-29T04:50:59;48.22;;;5.82;;
16977;SDS011;8605;52.548;4.918;2023-12-29T04:53:27;51.13;;;5.82;;
16977;SDS011;8605;52.548;4.918;2023-12-29T04:55:55;55.95;;;6.70;;
16977;SDS011;8605;52.548;4.918;2023-12-29T04:58:23;39.80;;;5.90;;
16977;SDS011;8605;52.548;4.918;2023-12-29T05:00:52;53.88;;;6.40;;
16977;SDS011;8605;52.548;4.918;2023-12-29T05:03:19;35.28;;;5.82;;
16977;SDS011;8605;52.548;4.918;2023-12-29T05:05:47;53.10;;;6.85;;
16977;SDS011;8605;52.548;4.918;2023-12-29T05:08:15;45.63;;;6.05;;
16977;SDS011;8605;52.548;4.918;2023-12-29T05:10:43;57.72;;;6.97;;
16977;SDS011;8605;52.548;4.918;2023-12-29T05:13:10;49.42;;;6.50;;
16977;SDS011;8605;52.548;4.918;2023-12-29T05:15:38;43.67;;;6.90;;
16977;SDS011;8605;52.548;4.918;2023-12-29T05:18:07;44.08;;;6.03;;
16977;SDS011;8605;52.548;4.918;2023-12-29T05:20:36;44.13;;;6.10;;
16977;SDS011;8605;52.548;4.918;2023-12-29T05:23:04;45.42;;;6.00;;
16977;SDS011;8605;52.548;4.918;2023-12-29T05:25:32;50.40;;;6.30;;
16977;SDS011;8605;52.548;4.918;2023-12-29T05:28:02;58.80;;;7.63;;
16977;SDS011;8605;52.548;4.918;2023-12-29T05:30:30;46.80;;;6.63;;
16977;SDS011;8605;52.548;4.918;2023-12-29T05:33:00;38.65;;;5.57;;
16977;SDS011;8605;52.548;4.918;2023-12-29T05:35:30;50.33;;;6.68;;
16977;SDS011;8605;52.548;4.918;2023-12-29T05:37:57;47.55;;;6.93;;
16977;SDS011;8605;52.548;4.918;2023-12-29T05:40:25;60.47;;;6.72;;
16977;SDS011;8605;52.548;4.918;2023-12-29T05:42:54;51.15;;;6.78;;
16977;SDS011;8605;52.548;4.918;2023-12-29T05:45:22;52.88;;;6.68;;
16977;SDS011;8605;52.548;4.918;2023-12-29T05:47:50;54.35;;;6.38;;
16977;SDS011;8605;52.548;4.918;2023-12-29T05:50:18;44.40;;;6.13;;
16977;SDS011;8605;52.548;4.918;2023-12-29T05:52:48;50.78;;;6.60;;
16977;SDS011;8605;52.548;4.918;2023-12-29T05:55:18;51.30;;;6.80;;
16977;SDS011;8605;52.548;4.918;2023-12-29T05:57:46;50.03;;;6.47;;
16977;SDS011;8605;52.548;4.918;2023-12-29T06:00:14;54.75;;;6.68;;
16977;SDS011;8605;52.548;4.918;2023-12-29T06:02:43;54.55;;;6.75;;
16977;SDS011;8605;52.548;4.918;2023-12-29T06:05:11;51.20;;;7.15;;
16977;SDS011;8605;52.548;4.918;2023-12-29T06:07:39;59.65;;;7.13;;
16977;SDS011;8605;52.548;4.918;2023-12-29T06:10:08;61.08;;;7.45;;
16977;SDS011;8605;52.548;4.918;2023-12-29T06:12:37;48.67;;;6.53;;
16977;SDS011;8605;52.548;4.918;2023-12-29T06:15:05;56.13;;;8.38;;
16977;SDS011;8605;52.548;4.918;2023-12-29T06:17:34;59.00;;;7.78;;
16977;SDS011;8605;52.548;4.918;2023-12-29T06:20:03;57.35;;;7.18;;
16977;SDS011;8605;52.548;4.918;2023-12-29T06:22:32;62.97;;;7.32;;
16977;SDS011;8605;52.548;4.918;2023-12-29T06:25:02;53.70;;;7.00;;
16977;SDS011;8605;52.548;4.918;2023-12-29T06:27:31;55.45;;;7.53;;
16977;SDS011;8605;52.548;4.918;2023-12-29T06:30:04;50.63;;;6.28;;
16977;SDS011;8605;52.548;4.918;2023-12-29T06:32:36;54.10;;;6.35;;
16977;SDS011;8605;52.548;4.918;2023-12-29T06:35:04;51.35;;;6.72;;
16977;SDS011;8605;52.548;4.918;2023-12-29T06:37:32;56.17;;;6.87;;
16977;SDS011;8605;52.548;4.918;2023-12-29T06:40:00;44.95;;;6.35;;
16977;SDS011;8605;52.548;4.918;2023-12-29T06:42:28;58.97;;;7.45;;
16977;SDS011;8605;52.548;4.918;2023-12-29T06:44:58;48.88;;;6.57;;
16977;SDS011;8605;52.548;4.918;2023-12-29T06:47:25;46.95;;;6.72;;
16977;SDS011;8605;52.548;4.918;2023-12-29T06:49:53;49.58;;;6.93;;
16977;SDS011;8605;52.548;4.918;2023-12-29T06:52:21;55.95;;;6.70;;
16977;SDS011;8605;52.548;4.918;2023-12-29T06:54:49;53.75;;;7.13;;
16977;SDS011;8605;52.548;4.918;2023-12-29T06:57:17;51.00;;;7.75;;
16977;SDS011;8605;52.548;4.918;2023-12-29T06:59:45;45.17;;;7.22;;
16977;SDS011;8605;52.548;4.918;2023-12-29T07:02:14;48.65;;;6.18;;
16977;SDS011;8605;52.548;4.918;2023-12-29T07:04:42;51.00;;;6.75;;
16977;SDS011;8605;52.548;4.918;2023-12-29T07:07:10;64.72;;;7.25;;
16977;SDS011;8605;52.548;4.918;2023-12-29T07:09:38;53.45;;;7.55;;
16977;SDS011;8605;52.548;4.918;2023-12-29T07:12:07;54.25;;;7.18;;
16977;SDS011;8605;52.548;4.918;2023-12-29T07:14:38;54.47;;;7.47;;
16977;SDS011;8605;52.548;4.918;2023-12-29T07:17:08;52.63;;;7.63;;
16977;SDS011;8605;52.548;4.918;2023-12-29T07:19:37;50.88;;;6.65;;
16977;SDS011;8605;52.548;4.918;2023-12-29T07:22:05;50.53;;;6.75;;
16977;SDS011;8605;52.548;4.918;2023-12-29T07:24:34;50.55;;;6.18;;
16977;SDS011;8605;52.548;4.918;2023-12-29T07:27:03;51.67;;;6.60;;
16977;SDS011;8605;52.548;4.918;2023-12-29T07:29:31;55.35;;;6.57;;
16977;SDS011;8605;52.548;4.918;2023-12-29T07:31:59;71.95;;;8.18;;
16977;SDS011;8605;52.548;4.918;2023-12-29T07:34:27;47.78;;;7.30;;
16977;SDS011;8605;52.548;4.918;2023-12-29T07:36:59;53.65;;;7.25;;
16977;SDS011;8605;52.548;4.918;2023-12-29T07:39:26;53.55;;;6.90;;
16977;SDS011;8605;52.548;4.918;2023-12-29T07:41:54;57.03;;;6.57;;
16977;SDS011;8605;52.548;4.918;2023-12-29T07:44:22;50.88;;;7.43;;
16977;SDS011;8605;52.548;4.918;2023-12-29T07:46:50;55.72;;;7.55;;
16977;SDS011;8605;52.548;4.918;2023-12-29T07:49:18;50.95;;;6.20;;
16977;SDS011;8605;52.548;4.918;2023-12-29T07:51:46;63.17;;;7.25;;
16977;SDS011;8605;52.548;4.918;2023-12-29T07:54:15;57.38;;;7.35;;
16977;SDS011;8605;52.548;4.918;2023-12-29T07:56:43;64.15;;;7.13;;
16977;SDS011;8605;52.548;4.918;2023-12-29T07:59:11;52.50;;;6.82;;
16977;SDS011;8605;52.548;4.918;2023-12-29T08:01:39;54.60;;;7.10;;
16977;SDS011;8605;52.548;4.918;2023-12-29T08:04:07;65.75;;;7.72;;
16977;SDS011;8605;52.548;4.918;2023-12-29T08:06:37;62.47;;;7.40;;
16977;SDS011;8605;52.548;4.918;2023-12-29T08:09:05;60.25;;;7.32;;
16977;SDS011;8605;52.548;4.918;2023-12-29T08:11:35;67.70;;;8.43;;
16977;SDS011;8605;52.548;4.918;2023-12-29T08:14:09;57.80;;;7.75;;
16977;SDS011;8605;52.548;4.918;2023-12-29T08:16:37;58.38;;;7.07;;
16977;SDS011;8605;52.548;4.918;2023-12-29T08:19:06;64.43;;;7.63;;
16977;SDS011;8605;52.548;4.918;2023-12-29T08:21:34;68.53;;;7.53;;
16977;SDS011;8605;52.548;4.918;2023-12-29T08:24:02;72.38;;;8.23;;
16977;SDS011;8605;52.548;4.918;2023-12-29T08:26:30;63.97;;;7.82;;
16977;SDS011;8605;52.548;4.918;2023-12-29T08:28:59;65.72;;;9.23;;
16977;SDS011;8605;52.548;4.918;2023-12-29T08:31:27;66.90;;;8.00;;
16977;SDS011;8605;52.548;4.918;2023-12-29T08:33:56;54.10;;;7.53;;
16977;SDS011;8605;52.548;4.918;2023-12-29T08:36:23;52.67;;;7.40;;
16977;SDS011;8605;52.548;4.918;2023-12-29T08:38:52;58.85;;;7.32;;
16977;SDS011;8605;52.548;4.918;2023-12-29T08:41:20;64.03;;;8.15;;
16977;SDS011;8605;52.548;4.918;2023-12-29T08:43:48;69.88;;;7.95;;
16977;SDS011;8605;52.548;4.918;2023-12-29T08:46:18;65.50;;;8.30;;
16977;SDS011;8605;52.548;4.918;2023-12-29T08:48:46;60.15;;;7.90;;
16977;SDS011;8605;52.548;4.918;2023-12-29T08:51:14;65.40;;;8.23;;
16977;SDS011;8605;52.548;4.918;2023-12-29T08:53:42;56.65;;;8.05;;
16977;SDS011;8605;52.548;4.918;2023-12-29T08:56:10;55.03;;;7.88;;
16977;SDS011;8605;52.548;4.918;2023-12-29T08:58:38;54.60;;;6.75;;
16977;SDS011;8605;52.548;4.918;2023-12-29T09:01:05;54.95;;;7.00;;
16977;SDS011;8605;52.548;4.918;2023-12-29T09:03:37;62.28;;;6.75;;
16977;SDS011;8605;52.548;4.918;2023-12-29T09:06:05;70.35;;;8.00;;
16977;SDS011;8605;52.548;4.918;2023-12-29T09:08:35;75.25;;;7.65;;
16977;SDS011;8605;52.548;4.918;2023-12-29T09:11:03;37.75;;;5.25;;
16977;SDS011;8605;52.548;4.918;2023-12-29T09:13:31;26.95;;;3.80;;
16977;SDS011;8605;52.548;4.918;2023-12-29T09:16:03;32.03;;;4.40;;
16977;SDS011;8605;52.548;4.918;2023-12-29T09:18:31;33.72;;;4.38;;
16977;SDS011;8605;52.548;4.918;2023-12-29T09:21:02;34.38;;;5.13;;
16977;SDS011;8605;52.548;4.918;2023-12-29T09:23:30;58.07;;;7.17;;
16977;SDS011;8605;52.548;4.918;2023-12-29T09:25:58;44.92;;;6.13;;
16977;SDS011;8605;52.548;4.918;2023-12-29T09:28:26;58.70;;;7.40;;
16977;SDS011;8605;52.548;4.918;2023-12-29T09:30:54;21.90;;;3.40;;
16977;SDS011;8605;52.548;4.918;2023-12-29T09:33:22;20.13;;;3.10;;
16977;SDS011;8605;52.548;4.918;2023-12-29T09:35:51;17.95;;;2.40;;
16977;SDS011;8605;52.548;4.918;2023-12-29T09:38:20;35.80;;;3.85;;
16977;SDS011;8605;52.548;4.918;2023-12-29T09:40:48;34.53;;;4.00;;
16977;SDS011;8605;52.548;4.918;2023-12-29T09:43:16;37.67;;;4.60;;
16977;SDS011;8605;52.548;4.918;2023-12-29T09:45:44;46.67;;;5.40;;
16977;SDS011;8605;52.548;4.918;2023-12-29T09:48:13;55.85;;;5.90;;
16977;SDS011;8605;52.548;4.918;2023-12-29T09:50:46;45.55;;;6.30;;
16977;SDS011;8605;52.548;4.918;2023-12-29T09:53:17;49.63;;;6.90;;
16977;SDS011;8605;52.548;4.918;2023-12-29T09:55:48;49.80;;;5.57;;
16977;SDS011;8605;52.548;4.918;2023-12-29T09:58:16;36.58;;;5.57;;
16977;SDS011;8605;52.548;4.918;2023-12-29T10:00:46;45.47;;;5.80;;
16977;SDS011;8605;52.548;4.918;2023-12-29T10:03:16;35.78;;;4.55;;
16977;SDS011;8605;52.548;4.918;2023-12-29T10:05:44;30.77;;;4.03;;
16977;SDS011;8605;52.548;4.918;2023-12-29T10:08:19;30.08;;;4.40;;
16977;SDS011;8605;52.548;4.918;2023-12-29T10:10:50;37.67;;;4.50;;
16977;SDS011;8605;52.548;4.918;2023-12-29T10:13:18;43.17;;;4.93;;
16977;SDS011;8605;52.548;4.918;2023-12-29T10:15:49;31.63;;;5.03;;
16977;SDS011;8605;52.548;4.918;2023-12-29T10:18:26;37.15;;;4.70;;
16977;SDS011;8605;52.548;4.918;2023-12-29T10:20:59;39.40;;;5.15;;
16977;SDS011;8605;52.548;4.918;2023-12-29T10:23:32;28.70;;;4.65;;
16977;SDS011;8605;52.548;4.918;2023-12-29T10:26:04;33.65;;;4.18;;
16977;SDS011;8605;52.548;4.918;2023-12-29T10:28:32;35.60;;;4.70;;
16977;SDS011;8605;52.548;4.918;2023-12-29T10:31:03;28.35;;;5.18;;
16977;SDS011;8605;52.548;4.918;2023-12-29T10:33:31;26.50;;;4.13;;
16977;SDS011;8605;52.548;4.918;2023-12-29T10:36:01;36.22;;;4.53;;
16977;SDS011;8605;52.548;4.918;2023-12-29T10:38:31;31.38;;;4.20;;
16977;SDS011;8605;52.548;4.918;2023-12-29T10:41:12;36.88;;;4.90;;
16977;SDS011;8605;52.548;4.918;2023-12-29T10:43:40;31.77;;;5.03;;
16977;SDS011;8605;52.548;4.918;2023-12-29T10:46:09;40.08;;;5.78;;
16977;SDS011;8605;52.548;4.918;2023-12-29T10:48:38;37.38;;;5.05;;
16977;SDS011;8605;52.548;4.918;2023-12-29T10:51:06;30.80;;;4.43;;
16977;SDS011;8605;52.548;4.918;2023-12-29T10:53:37;31.52;;;4.85;;
16977;SDS011;8605;52.548;4.918;2023-12-29T10:56:10;33.60;;;4.85;;
16977;SDS011;8605;52.548;4.918;2023-12-29T10:58:46;27.20;;;3.22;;
16977;SDS011;8605;52.548;4.918;2023-12-29T11:01:25;30.85;;;4.30;;
16977;SDS011;8605;52.548;4.918;2023-12-29T11:03:59;27.17;;;3.67;;
16977;SDS011;8605;52.548;4.918;2023-12-29T11:06:28;29.02;;;4.18;;
16977;SDS011;8605;52.548;4.918;2023-12-29T11:08:58;28.58;;;3.65;;
16977;SDS011;8605;52.548;4.918;2023-12-29T11:11:26;30.35;;;4.05;;
16977;SDS011;8605;52.548;4.918;2023-12-29T11:13:53;30.50;;;4.25;;
16977;SDS011;8605;52.548;4.918;2023-12-29T11:16:21;28.10;;;4.13;;
16977;SDS011;8605;52.548;4.918;2023-12-29T11:18:51;36.58;;;4.55;;
16977;SDS011;8605;52.548;4.918;2023-12-29T11:21:23;26.58;;;4.03;;
16977;SDS011;8605;52.548;4.918;2023-12-29T11:23:54;28.80;;;3.70;;
16977;SDS011;8605;52.548;4.918;2023-12-29T11:26:23;31.40;;;5.07;;
16977;SDS011;8605;52.548;4.918;2023-12-29T11:28:53;25.40;;;3.60;;
16977;SDS011;8605;52.548;4.918;2023-12-29T11:31:22;22.92;;;3.33;;
16977;SDS011;8605;52.548;4.918;2023-12-29T11:33:50;29.45;;;3.55;;
16977;SDS011;8605;52.548;4.918;2023-12-29T11:36:27;31.40;;;4.15;;
16977;SDS011;8605;52.548;4.918;2023-12-29T11:39:02;25.98;;;3.75;;
16977;SDS011;8605;52.548;4.918;2023-12-29T11:41:37;34.10;;;3.95;;
16977;SDS011;8605;52.548;4.918;2023-12-29T11:44:08;26.63;;;3.97;;
16977;SDS011;8605;52.548;4.918;2023-12-29T11:46:37;33.60;;;4.60;;
16977;SDS011;8605;52.548;4.918;2023-12-29T11:49:06;26.05;;;3.85;;
16977;SDS011;8605;52.548;4.918;2023-12-29T11:51:34;36.65;;;4.65;;
16977;SDS011;8605;52.548;4.918;2023-12-29T11:54:03;35.10;;;4.30;;
16977;SDS011;8605;52.548;4.918;2023-12-29T11:56:33;39.35;;;5.00;;
16977;SDS011;8605;52.548;4.918;2023-12-29T11:59:16;32.60;;;3.80;;
16977;SDS011;8605;52.548;4.918;2023-12-29T12:01:46;31.38;;;4.32;;
16977;SDS011;8605;52.548;4.918;2023-12-29T12:04:36;30.92;;;4.53;;
16977;SDS011;8605;52.548;4.918;2023-12-29T12:07:08;35.42;;;4.60;;
16977;SDS011;8605;52.548;4.918;2023-12-29T12:09:37;30.45;;;6.07;;
16977;SDS011;8605;52.548;4.918;2023-12-29T12:12:05;37.72;;;6.03;;
16977;SDS011;8605;52.548;4.918;2023-12-29T12:14:47;32.72;;;4.65;;
16977;SDS011;8605;52.548;4.918;2023-12-29T12:17:29;34.85;;;4.25;;
16977;SDS011;8605;52.548;4.918;2023-12-29T12:19:59;33.05;;;4.20;;
16977;SDS011;8605;52.548;4.918;2023-12-29T12:22:30;39.13;;;4.38;;
16977;SDS011;8605;52.548;4.918;2023-12-29T12:25:04;39.67;;;4.55;;
16977;SDS011;8605;52.548;4.918;2023-12-29T12:27:33;33.35;;;4.57;;
16977;SDS011;8605;52.548;4.918;2023-12-29T12:30:06;27.95;;;4.10;;
16977;SDS011;8605;52.548;4.918;2023-12-29T12:32:37;25.75;;;4.07;;
16977;SDS011;8605;52.548;4.918;2023-12-29T12:35:07;23.25;;;3.90;;
16977;SDS011;8605;52.548;4.918;2023-12-29T12:37:44;30.17;;;4.03;;
16977;SDS011;8605;52.548;4.918;2023-12-29T12:40:17;31.45;;;4.35;;
16977;SDS011;8605;52.548;4.918;2023-12-29T12:42:52;30.10;;;3.90;;
16977;SDS011;8605;52.548;4.918;2023-12-29T12:45:21;29.08;;;4.10;;
16977;SDS011;8605;52.548;4.918;2023-12-29T12:47:50;33.60;;;3.78;;
16977;SDS011;8605;52.548;4.918;2023-12-29T12:50:20;28.45;;;3.95;;
16977;SDS011;8605;52.548;4.918;2023-12-29T12:52:48;25.52;;;4.38;;
16977;SDS011;8605;52.548;4.918;2023-12-29T12:55:16;31.55;;;3.70;;
16977;SDS011;8605;52.548;4.918;2023-12-29T12:57:44;29.17;;;4.50;;
16977;SDS011;8605;52.548;4.918;2023-12-29T13:00:13;33.05;;;4.57;;
16977;SDS011;8605;52.548;4.918;2023-12-29T13:02:45;30.85;;;4.10;;
16977;SDS011;8605;52.548;4.918;2023-12-29T13:05:15;31.25;;;4.28;;
16977;SDS011;8605;52.548;4.918;2023-12-29T13:07:44;21.80;;;3.65;;
16977;SDS011;8605;52.548;4.918;2023-12-29T13:10:12;25.70;;;3.63;;
16977;SDS011;8605;52.548;4.918;2023-12-29T13:12:40;22.40;;;3.75;;
16977;SDS011;8605;52.548;4.918;2023-12-29T13:15:19;33.83;;;3.88;;
16977;SDS011;8605;52.548;4.918;2023-12-29T13:17:51;25.83;;;3.22;;
16977;SDS011;8605;52.548;4.918;2023-12-29T13:20:18;25.17;;;3.60;;
16977;SDS011;8605;52.548;4.918;2023-12-29T13:22:49;24.90;;;3.50;;
16977;SDS011;8605;52.548;4.918;2023-12-29T13:25:18;30.20;;;4.20;;
16977;SDS011;8605;52.548;4.918;2023-12-29T13:27:47;29.33;;;4.78;;
16977;SDS011;8605;52.548;4.918;2023-12-29T13:30:17;37.10;;;4.53;;
16977;SDS011;8605;52.548;4.918;2023-12-29T13:32:47;32.17;;;3.90;;
16977;SDS011;8605;52.548;4.918;2023-12-29T13:35:18;28.15;;;3.92;;
16977;SDS011;8605;52.548;4.918;2023-12-29T13:37:51;30.30;;;4.30;;
16977;SDS011;8605;52.548;4.918;2023-12-29T13:40:22;25.85;;;4.38;;
16977;SDS011;8605;52.548;4.918;2023-12-29T13:42:55;36.60;;;4.63;;
16977;SDS011;8605;52.548;4.918;2023-12-29T13:45:26;22.52;;;3.50;;
16977;SDS011;8605;52.548;4.918;2023-12-29T13:47:55;29.42;;;3.88;;
16977;SDS011;8605;52.548;4.918;2023-12-29T13:50:26;27.63;;;4.28;;
16977;SDS011;8605;52.548;4.918;2023-12-29T13:52:54;29.05;;;4.05;;
16977;SDS011;8605;52.548;4.918;2023-12-29T13:55:22;23.80;;;3.65;;
16977;SDS011;8605;52.548;4.918;2023-12-29T13:57:51;26.77;;;3.85;;
16977;SDS011;8605;52.548;4.918;2023-12-29T14:00:20;32.10;;;3.75;;
16977;SDS011;8605;52.548;4.918;2023-12-29T14:02:57;25.63;;;4.22;;
16977;SDS011;8605;52.548;4.918;2023-12-29T14:05:35;29.58;;;4.78;;
16977;SDS011;8605;52.548;4.918;2023-12-29T14:08:05;33.80;;;4.35;;
16977;SDS011;8605;52.548;4.918;2023-12-29T14:10:37;32.20;;;4.07;;
16977;SDS011;8605;52.548;4.918;2023-12-29T14:13:06;27.98;;;4.75;;
16977;SDS011;8605;52.548;4.918;2023-12-29T14:15:35;27.52;;;4.60;;
16977;SDS011;8605;52.548;4.918;2023-12-29T14:18:04;34.92;;;3.95;;
16977;SDS011;8605;52.548;4.918;2023-12-29T14:20:41;36.22;;;6.18;;
16977;SDS011;8605;52.548;4.918;2023-12-29T14:23:09;30.90;;;5.20;;
16977;SDS011;8605;52.548;4.918;2023-12-29T14:25:37;43.17;;;5.50;;
16977;SDS011;8605;52.548;4.918;2023-12-29T14:28:13;40.28;;;5.05;;
16977;SDS011;8605;52.548;4.918;2023-12-29T14:30:43;35.05;;;4.90;;
16977;SDS011;8605;52.548;4.918;2023-12-29T14:33:11;40.92;;;5.72;;
16977;SDS011;8605;52.548;4.918;2023-12-29T14:35:39;27.67;;;4.05;;
16977;SDS011;8605;52.548;4.918;2023-12-29T14:38:08;41.63;;;4.70;;
16977;SDS011;8605;52.548;4.918;2023-12-29T14:40:38;33.35;;;4.85;;
16977;SDS011;8605;52.548;4.918;2023-12-29T14:43:07;32.25;;;5.65;;
16977;SDS011;8605;52.548;4.918;2023-12-29T14:45:34;28.92;;;4.50;;
16977;SDS011;8605;52.548;4.918;2023-12-29T14:48:02;33.30;;;4.50;;
16977;SDS011;8605;52.548;4.918;2023-12-29T14:50:31;18.05;;;2.70;;
16977;SDS011;8605;52.548;4.918;2023-12-29T14:53:01;16.33;;;2.28;;
16977;SDS011;8605;52.548;4.918;2023-12-29T14:55:30;11.98;;;2.75;;
16977;SDS011;8605;52.548;4.918;2023-12-29T14:57:58;13.98;;;1.88;;
16977;SDS011;8605;52.548;4.918;2023-12-29T15:00:26;9.98;;;1.60;;
16977;SDS011;8605;52.548;4.918;2023-12-29T15:02:54;9.98;;;1.67;;